Station History

Weather Underground - logo

Station Historical Data
Daily Summary for January 5, 2018 Units:  Metric    English   Both
« Previous Day
Next Day »
Daily Weekly Monthly Yearly Custom
  High: Low: Average:
Temperature: 22.4 °C 9.8 °C 15.7 °C
Dew Point: 14.7 °C 9.1 °C 12.3 °C
Humidity: 97 % 59 % 82 %
Wind Speed: 6.4 km/h 0 km/h 0.8 km/h
Wind Gust: 6.4 km/h - -
Wind:- - West
Pressure: 1023.9 hPa 1020.5 hPa -
Precipitation: 0 mm    
Historical Graphs
 
 
Tabular Data for January 5, 2018
Time Temperature Dew Point Pressure Wind Wind Speed Wind Gust Humidity Rainfall Rate (Hourly)
00:02 12.7 °C 11.6 °C 1021.9 hPa Calm     93 % 0 mm
00:07 12.6 °C 11.4 °C 1021.9 hPa Calm     93 % 0 mm
00:08 12.6 °C 11.4 °C 1021.9 hPa Calm     93 % 0 mm
00:13 12.3 °C 11.2 °C 1021.9 hPa Calm     93 % 0 mm
00:18 12.2 °C 11.3 °C 1021.6 hPa Calm     94 % 0 mm
00:20 12.2 °C 11.2 °C 1021.6 hPa Calm     94 % 0 mm
00:25 12.1 °C 11.1 °C 1021.6 hPa Calm     94 % 0 mm
00:27 11.9 °C 11 °C 1021.6 hPa Calm     94 % 0 mm
00:32 11.8 °C 10.8 °C 1021.6 hPa Calm     94 % 0 mm
00:33 11.8 °C 10.8 °C 1021.6 hPa Calm     94 % 0 mm
00:38 11.6 °C 10.7 °C 1021.6 hPa Calm     94 % 0 mm
00:40 11.6 °C 10.6 °C 1021.6 hPa Calm     94 % 0 mm
00:42 11.5 °C 10.6 °C 1021.6 hPa Calm     94 % 0 mm
00:47 11.4 °C 10.4 °C 1021.2 hPa Calm     94 % 0 mm
00:52 11.1 °C 10.2 °C 1021.6 hPa Calm     94 % 0 mm
00:54 11.1 °C 10.1 °C 1021.2 hPa Calm     94 % 0 mm
00:59 11 °C 10.2 °C 1021.2 hPa Calm     95 % 0 mm
01:00 10.9 °C 10.2 °C 1021.2 hPa Calm     95 % 0 mm
01:05 10.9 °C 10.1 °C 1021.2 hPa Calm     95 % 0 mm
01:08 10.8 °C 10.1 °C 1021.2 hPa Calm     95 % 0 mm
01:13 10.7 °C 9.9 °C 1021.2 hPa Calm     95 % 0 mm
01:14 10.7 °C 9.9 °C 1021.2 hPa Calm     95 % 0 mm
01:19 10.7 °C 9.9 °C 1021.2 hPa Calm     95 % 0 mm
01:22 10.7 °C 9.9 °C 1021.2 hPa Calm     95 % 0 mm
01:27 10.5 °C 9.7 °C 1021.2 hPa Calm     95 % 0 mm
01:30 10.6 °C 9.8 °C 1021.2 hPa Calm     95 % 0 mm
01:35 10.7 °C 10.1 °C 1021.2 hPa Calm     96 % 0 mm
01:41 10.7 °C 10.1 °C 1021.2 hPa Calm     96 % 0 mm
01:42 10.7 °C 10.1 °C 1021.2 hPa Calm     96 % 0 mm
01:47 10.7 °C 10.1 °C 1021.2 hPa Calm     96 % 0 mm
01:50 10.7 °C 10.1 °C 1021.2 hPa Calm     96 % 0 mm
01:55 10.7 °C 10.1 °C 1021.2 hPa Calm     96 % 0 mm
01:56 10.7 °C 10.1 °C 1021.2 hPa Calm     96 % 0 mm
01:57 10.7 °C 10.1 °C 1021.2 hPa Calm     96 % 0 mm
02:02 10.7 °C 10.1 °C 1021.2 hPa Calm     96 % 0 mm
02:04 10.7 °C 10.1 °C 1021.2 hPa Calm     96 % 0 mm
02:09 10.8 °C 10.2 °C 1021.2 hPa Calm     96 % 0 mm
02:14 10.9 °C 10.3 °C 1021.2 hPa Calm     96 % 0 mm
02:19 10.9 °C 10.3 °C 1021.6 hPa Calm     96 % 0 mm
02:23 10.9 °C 10.3 °C 1021.2 hPa Calm     96 % 0 mm
02:28 10.8 °C 10.2 °C 1021.2 hPa Calm     96 % 0 mm
02:29 10.7 °C 10.1 °C 1021.2 hPa Calm     96 % 0 mm
02:34 10.7 °C 10.1 °C 1021.6 hPa Calm     96 % 0 mm
02:40 10.6 °C 9.9 °C 1021.6 hPa Calm     96 % 0 mm
02:44 10.6 °C 9.9 °C 1021.6 hPa Calm     96 % 0 mm
02:47 10.7 °C 10.1 °C 1021.6 hPa Calm     96 % 0 mm
02:52 10.8 °C 10.2 °C 1021.6 hPa Calm     96 % 0 mm
02:56 10.9 °C 10.3 °C 1021.6 hPa Calm     96 % 0 mm
03:01 11 °C 10.4 °C 1021.6 hPa Calm     96 % 0 mm
03:04 11.1 °C 10.7 °C 1021.6 hPa Calm     97 % 0 mm
03:09 11.3 °C 10.8 °C 1021.6 hPa Calm     97 % 0 mm
03:10 11.3 °C 10.8 °C 1021.6 hPa Calm     97 % 0 mm
03:15 11.4 °C 10.9 °C 1021.6 hPa Calm     97 % 0 mm
03:18 11.4 °C 11 °C 1021.6 hPa Calm     97 % 0 mm
03:23 11.4 °C 10.9 °C 1021.6 hPa Calm     97 % 0 mm
03:24 11.3 °C 10.9 °C 1021.6 hPa Calm     97 % 0 mm
03:29 11.5 °C 11.1 °C 1021.6 hPa Calm     97 % 0 mm
03:34 11.4 °C 10.8 °C 1021.6 hPa Calm     96 % 0 mm
03:39 11.3 °C 10.7 °C 1021.6 hPa Calm     96 % 0 mm
03:44 11.2 °C 10.6 °C 1021.6 hPa Calm     96 % 0 mm
03:46 11.1 °C 10.5 °C 1021.6 hPa Calm     96 % 0 mm
03:49 11.1 °C 10.5 °C 1021.6 hPa Calm     96 % 0 mm
03:55 11 °C 10.4 °C 1021.6 hPa Calm     96 % 0 mm
03:59 10.9 °C 10.3 °C 1021.6 hPa Calm     96 % 0 mm
04:04 10.9 °C 10.3 °C 1021.6 hPa Calm     96 % 0 mm
04:06 10.9 °C 10.3 °C 1021.6 hPa Calm     96 % 0 mm
04:07 11 °C 10.4 °C 1021.6 hPa Calm     96 % 0 mm
04:12 11 °C 10.4 °C 1021.2 hPa Calm     96 % 0 mm
04:17 10.8 °C 10.2 °C 1021.2 hPa Calm     96 % 0 mm
04:22 10.8 °C 10.2 °C 1021.2 hPa Calm     96 % 0 mm
04:27 10.6 °C 9.8 °C 1021.2 hPa Calm     95 % 0 mm
04:28 10.6 °C 9.8 °C 1021.2 hPa Calm     95 % 0 mm
04:33 10.3 °C 9.6 °C 1021.2 hPa Calm     95 % 0 mm
04:35 10.3 °C 9.5 °C 1021.2 hPa Calm     95 % 0 mm
04:40 10.2 °C 9.4 °C 1021.2 hPa Calm     95 % 0 mm
04:46 10.1 °C 9.3 °C 1021.2 hPa Calm     95 % 0 mm
04:51 10 °C 9.2 °C 1021.2 hPa Calm     95 % 0 mm
04:53 9.9 °C 9.2 °C 1021.2 hPa Calm     95 % 0 mm
04:58 9.8 °C 9.1 °C 1021.2 hPa Calm     95 % 0 mm
04:59 9.8 °C 9.1 °C 1021.2 hPa Calm     95 % 0 mm
05:04 9.8 °C 9.2 °C 1021.2 hPa Calm     96 % 0 mm
05:09 9.8 °C 9.2 °C 1021.2 hPa Calm     96 % 0 mm
05:10 9.8 °C 9.2 °C 1021.2 hPa Calm     96 % 0 mm
05:15 9.9 °C 9.3 °C 1021.6 hPa Calm     96 % 0 mm
05:20 10.2 °C 9.6 °C 1021.6 hPa Calm     96 % 0 mm
05:25 10.3 °C 9.7 °C 1021.6 hPa Calm     96 % 0 mm
05:30 10.4 °C 9.8 °C 1021.6 hPa Calm     96 % 0 mm
05:35 10.5 °C 9.9 °C 1021.6 hPa Calm     96 % 0 mm
05:37 10.5 °C 9.9 °C 1021.6 hPa Calm     96 % 0 mm
05:42 10.6 °C 9.9 °C 1021.9 hPa Calm     96 % 0 mm
05:47 10.6 °C 10 °C 1021.6 hPa Calm     96 % 0 mm
05:52 10.6 °C 10 °C 1021.6 hPa Calm     96 % 0 mm
05:57 10.7 °C 10.1 °C 1021.9 hPa Calm     96 % 0 mm
06:02 10.7 °C 10.1 °C 1021.9 hPa Calm     96 % 0 mm
06:03 10.7 °C 10.1 °C 1021.9 hPa Calm     96 % 0 mm
06:08 10.7 °C 10.1 °C 1021.9 hPa Calm     96 % 0 mm
06:13 10.7 °C 10.1 °C 1021.9 hPa Calm     96 % 0 mm
06:18 10.7 °C 10.1 °C 1021.9 hPa Calm     96 % 0 mm
06:23 10.8 °C 10.2 °C 1021.9 hPa Calm     96 % 0 mm
06:28 10.8 °C 10.2 °C 1021.9 hPa Calm     96 % 0 mm
06:33 10.9 °C 10.3 °C 1021.9 hPa Calm     96 % 0 mm
06:39 10.9 °C 10.3 °C 1021.9 hPa Calm     96 % 0 mm
06:44 11 °C 10.4 °C 1021.9 hPa Calm     96 % 0 mm
06:49 11 °C 10.2 °C 1021.9 hPa Calm     95 % 0 mm
06:52 11.1 °C 10.3 °C 1021.9 hPa Calm     95 % 0 mm
06:58 11.1 °C 10.2 °C 1022.2 hPa Calm     94 % 0 mm
07:01 11.2 °C 10.2 °C 1022.2 hPa Calm     94 % 0 mm
07:06 11.2 °C 10.1 °C 1022.2 hPa Calm     93 % 0 mm
07:08 11.2 °C 10.1 °C 1022.6 hPa Calm     93 % 0 mm
07:13 11.2 °C 9.9 °C 1022.6 hPa Calm     92 % 0 mm
07:18 11 °C 9.7 °C 1022.2 hPa Calm     92 % 0 mm
07:20 10.9 °C 9.7 °C 1022.2 hPa Calm     92 % 0 mm
07:25 10.8 °C 9.6 °C 1022.2 hPa Calm     92 % 0 mm
07:30 10.7 °C 9.6 °C 1022.2 hPa Calm     93 % 0 mm
07:34 10.7 °C 9.6 °C 1022.2 hPa Calm     93 % 0 mm
07:39 10.7 °C 9.7 °C 1022.2 hPa Calm     94 % 0 mm
07:42 10.8 °C 9.8 °C 1022.2 hPa Calm     94 % 0 mm
07:47 11 °C 10.2 °C 1022.6 hPa Calm     95 % 0 mm
07:48 11 °C 10.2 °C 1022.6 hPa Calm     95 % 0 mm
07:51 11.1 °C 10.3 °C 1022.6 hPa Calm     95 % 0 mm
07:55 11.2 °C 10.4 °C 1022.9 hPa Calm     95 % 0 mm
08:00 11.4 °C 10.6 °C 1022.9 hPa Calm     95 % 0 mm
08:02 11.4 °C 10.5 °C 1022.9 hPa Calm     94 % 0 mm
08:07 11.6 °C 10.6 °C 1022.9 hPa Calm     94 % 0 mm
08:13 11.9 °C 10.9 °C 1023.2 hPa Calm     94 % 0 mm
08:18 12.4 °C 11.5 °C 1023.2 hPa Calm     94 % 0 mm
08:21 13.1 °C 12.3 °C 1023.2 hPa Calm     95 % 0 mm
08:27 13.8 °C 12.7 °C 1023.6 hPa Calm     93 % 0 mm
08:30 14.1 °C 12.8 °C 1023.2 hPa Calm     92 % 0 mm
08:35 14.4 °C 12.8 °C 1023.6 hPa Calm     90 % 0 mm
08:40 14.5 °C 12.7 °C 1023.6 hPa Calm     89 % 0 mm
08:43 14.6 °C 12.8 °C 1023.6 hPa Calm     89 % 0 mm
08:44 14.6 °C 12.9 °C 1023.6 hPa Calm     90 % 0 mm
08:49 14.6 °C 12.8 °C 1023.6 hPa Calm     89 % 0 mm
08:54 14.7 °C 12.3 °C 1023.6 hPa Calm     86 % 0 mm
08:57 14.7 °C 12 °C 1023.6 hPa Calm     84 % 0 mm
09:02 14.8 °C 12.2 °C 1023.6 hPa Calm     84 % 0 mm
09:07 14.9 °C 11.7 °C 1023.6 hPa Calm     81 % 0 mm
09:10 15 °C 11.6 °C 1023.6 hPa Calm     80 % 0 mm
09:15 15.2 °C 11.6 °C 1023.6 hPa Calm     79 % 0 mm
09:16 15.3 °C 11.7 °C 1023.6 hPa Calm     79 % 0 mm
09:20 15.6 °C 11.8 °C 1023.6 hPa SE 1.9 km/h   78 % 0 mm
09:21 15.7 °C 11.9 °C 1023.6 hPa Calm     78 % 0 mm
09:27 15.9 °C 12.1 °C 1023.6 hPa Calm     78 % 0 mm
09:30 16.1 °C 12.4 °C 1023.6 hPa ESE 1.9 km/h   79 % 0 mm
09:33 16.2 °C 12.4 °C 1023.6 hPa ESE 1.9 km/h   78 % 0 mm
09:38 16.4 °C 12.4 °C 1023.6 hPa Calm     77 % 0 mm
09:43 16.8 °C 12.2 °C 1023.9 hPa ESE 1.9 km/h   74 % 0 mm
09:46 17 °C 11.9 °C 1023.9 hPa ESE 1.9 km/h 1.9 km/h 72 % 0 mm
09:51 17.3 °C 12.2 °C 1023.9 hPa SE 1.9 km/h 1.9 km/h 72 % 0 mm
09:55 17.5 °C 12.4 °C 1023.9 hPa Calm   0.2 km/h 72 % 0 mm
10:01 17.7 °C 12.3 °C 1023.9 hPa Calm     71 % 0 mm
10:02 17.8 °C 12.4 °C 1023.9 hPa Calm     71 % 0 mm
10:08 18 °C 12.7 °C 1023.6 hPa Calm     71 % 0 mm
10:13 18.2 °C 12.6 °C 1023.6 hPa Calm     70 % 0 mm
10:16 18.3 °C 12.5 °C 1023.9 hPa Calm     69 % 0 mm
10:20 18.3 °C 12.3 °C 1023.9 hPa Calm     68 % 0 mm
10:25 18.4 °C 12.4 °C 1023.9 hPa Calm     68 % 0 mm
10:30 18.5 °C 12.5 °C 1023.6 hPa SW 1.9 km/h 1.9 km/h 68 % 0 mm
10:34 18.7 °C 12.9 °C 1023.6 hPa Calm     69 % 0 mm
10:36 18.7 °C 12.7 °C 1023.6 hPa SW 1.9 km/h   68 % 0 mm
10:41 18.9 °C 13.1 °C 1023.6 hPa Calm     69 % 0 mm
10:45 19.2 °C 13.3 °C 1023.6 hPa Calm     69 % 0 mm
10:50 19.4 °C 13.6 °C 1023.6 hPa Calm     69 % 0 mm
10:54 19.6 °C 13.8 °C 1023.6 hPa WNW 1.9 km/h 1.9 km/h 69 % 0 mm
10:59 19.7 °C 13.7 °C 1023.2 hPa NW 1.9 km/h 1.9 km/h 68 % 0 mm
11:04 19.9 °C 13.6 °C 1023.2 hPa NNW 1.9 km/h 1.9 km/h 67 % 0 mm
11:07 19.9 °C 14.1 °C 1023.2 hPa Calm     69 % 0 mm
11:12 20.1 °C 14.2 °C 1023.2 hPa WSW 1.9 km/h 1.9 km/h 69 % 0 mm
11:14 20.1 °C 14 °C 1023.2 hPa WNW 3.7 km/h 3.7 km/h 68 % 0 mm
11:18 20.2 °C 14.1 °C 1022.9 hPa NW 1.9 km/h   68 % 0 mm
11:19 20.2 °C 14.1 °C 1022.9 hPa NW 1.9 km/h 1.9 km/h 68 % 0 mm
11:24 20.5 °C 14.4 °C 1022.9 hPa South 1.9 km/h 1.9 km/h 68 % 0 mm
11:30 20.8 °C 14.4 °C 1022.9 hPa NW 3.7 km/h 3.7 km/h 67 % 0 mm
11:33 20.7 °C 14.6 °C 1022.9 hPa NNE 3.7 km/h 3.7 km/h 68 % 0 mm
11:39 20.8 °C 14.7 °C 1022.6 hPa Calm     68 % 0 mm
11:44 20.9 °C 14.6 °C 1022.6 hPa East 3.2 km/h 3.2 km/h 67 % 0 mm
11:46 20.9 °C 14.6 °C 1022.6 hPa West 1.9 km/h 1.9 km/h 67 % 0 mm
11:51 21 °C 14.4 °C 1022.6 hPa NW 3.7 km/h 3.7 km/h 66 % 0 mm
11:55 21.1 °C 14.2 °C 1022.6 hPa NW 3.7 km/h 3.7 km/h 65 % 0 mm
12:00 21.2 °C 14.6 °C 1022.6 hPa NW 3.7 km/h 3.7 km/h 66 % 0 mm
12:05 21.2 °C 14.1 °C 1022.6 hPa WNW 4.8 km/h 4.8 km/h 64 % 0 mm
12:10 21.3 °C 14.4 °C 1022.6 hPa NW 5.6 km/h 5.6 km/h 65 % 0 mm
12:13 21.3 °C 14.2 °C 1022.2 hPa WNW 5.6 km/h 5.6 km/h 64 % 0 mm
12:18 21.3 °C 14.2 °C 1022.2 hPa NW 1.9 km/h 1.9 km/h 64 % 0 mm
12:23 21.4 °C 14.6 °C 1022.2 hPa NW 1.9 km/h 1.9 km/h 65 % 0 mm
12:24 21.4 °C 14.6 °C 1022.2 hPa NW 3.2 km/h 3.2 km/h 65 % 0 mm
12:29 21.6 °C 14.3 °C 1022.2 hPa NW 3.7 km/h 3.7 km/h 63 % 0 mm
12:30 21.6 °C 14.3 °C 1022.2 hPa NW 4.8 km/h 4.8 km/h 63 % 0 mm
12:32 21.6 °C 14.3 °C 1022.2 hPa NNW 3.7 km/h 3.7 km/h 63 % 0 mm
12:35 21.6 °C 14.3 °C 1021.9 hPa WNW 1.9 km/h 1.9 km/h 63 % 0 mm
12:40 21.6 °C 14 °C 1021.9 hPa NW 5.6 km/h 5.6 km/h 62 % 0 mm
12:45 21.6 °C 14 °C 1021.9 hPa NW 5.6 km/h 5.6 km/h 62 % 0 mm
12:50 21.6 °C 14 °C 1021.9 hPa WNW 3.7 km/h 3.7 km/h 62 % 0 mm
12:55 21.7 °C 14.3 °C 1021.9 hPa North 1.6 km/h 1.6 km/h 63 % 0 mm
12:59 21.8 °C 14.2 °C 1021.9 hPa NNW 5.6 km/h 5.6 km/h 62 % 0 mm
13:00 21.8 °C 14.2 °C 1021.9 hPa WNW 3.7 km/h 3.7 km/h 62 % 0 mm
13:05 21.8 °C 14 °C 1021.6 hPa North 1.6 km/h 1.6 km/h 61 % 0 mm
13:07 21.9 °C 14 °C 1021.9 hPa NNW 5.6 km/h 5.6 km/h 61 % 0 mm
13:11 21.9 °C 14.1 °C 1021.6 hPa NNW 3.7 km/h 3.7 km/h 61 % 0 mm
13:16 22.1 °C 13.9 °C 1021.6 hPa SW 1.9 km/h   60 % 0 mm
13:18 22.1 °C 14.2 °C 1021.6 hPa Calm     61 % 0 mm
13:23 22.3 °C 14.4 °C 1021.6 hPa South 3.7 km/h 3.7 km/h 61 % 0 mm
13:25 22.4 °C 14.2 °C 1021.6 hPa WSW 5.6 km/h 5.6 km/h 60 % 0 mm
13:30 22.3 °C 13.9 °C 1021.2 hPa West 5.6 km/h 5.6 km/h 59 % 0 mm
13:35 22.2 °C 14.1 °C 1021.2 hPa Calm     60 % 0 mm
13:36 22.2 °C 14.1 °C 1021.2 hPa WNW 3.2 km/h 3.2 km/h 60 % 0 mm
13:40 22.2 °C 14.1 °C 1021.2 hPa NW 3.7 km/h 3.7 km/h 60 % 0 mm
13:41 22.2 °C 14.3 °C 1021.2 hPa WNW 5.6 km/h 5.6 km/h 61 % 0 mm
13:46 22.1 °C 14 °C 1021.2 hPa NW 3.7 km/h 3.7 km/h 60 % 0 mm
13:48 22.1 °C 14.2 °C 1021.2 hPa WNW 1.9 km/h 1.9 km/h 61 % 0 mm
13:54 22.1 °C 14.2 °C 1021.2 hPa NW 3.7 km/h 3.7 km/h 61 % 0 mm
13:59 22.2 °C 14.1 °C 1020.9 hPa WNW 5.6 km/h 5.6 km/h 60 % 0 mm
14:04 22.2 °C 14.3 °C 1020.9 hPa NW 3.7 km/h 3.7 km/h 61 % 0 mm
14:06 22.2 °C 14.1 °C 1020.9 hPa WNW 5.6 km/h 5.6 km/h 60 % 0 mm
14:10 22.2 °C 14.1 °C 1020.9 hPa NW 4.8 km/h 4.8 km/h 60 % 0 mm
14:11 22.2 °C 14.3 °C 1020.9 hPa NW 5.6 km/h 5.6 km/h 61 % 0 mm
14:16 22 °C 14.1 °C 1020.9 hPa NW 6.4 km/h 6.4 km/h 61 % 0 mm
14:19 21.9 °C 14.3 °C 1020.9 hPa NW 1.9 km/h 1.9 km/h 62 % 0 mm
14:24 22.1 °C 14.4 °C 1020.9 hPa NW 3.7 km/h 3.7 km/h 62 % 0 mm
14:26 22.1 °C 14.2 °C 1020.9 hPa ENE 1.9 km/h   61 % 0 mm
14:31 22.1 °C 14.4 °C 1020.9 hPa WNW 5.6 km/h 5.6 km/h 62 % 0 mm
14:33 22.1 °C 14.4 °C 1020.9 hPa West 3.7 km/h 3.7 km/h 62 % 0 mm
14:38 22.1 °C 14.4 °C 1020.9 hPa WNW 1.9 km/h 1.9 km/h 62 % 0 mm
14:44 22 °C 14.4 °C 1020.9 hPa NW 4.8 km/h 4.8 km/h 62 % 0 mm
14:45 22 °C 14.4 °C 1020.9 hPa NW 5.6 km/h 5.6 km/h 62 % 0 mm
14:53 21.9 °C 14.3 °C 1020.9 hPa NW 1.9 km/h 1.9 km/h 62 % 0 mm
14:58 21.9 °C 14.5 °C 1020.9 hPa NW 1.9 km/h 1.9 km/h 63 % 0 mm
15:03 21.9 °C 14.5 °C 1020.9 hPa NW 1.9 km/h 1.9 km/h 63 % 0 mm
15:04 21.9 °C 14.5 °C 1020.9 hPa NW 3.2 km/h 3.2 km/h 63 % 0 mm
15:05 21.9 °C 14.5 °C 1020.9 hPa NW 3.7 km/h 3.7 km/h 63 % 0 mm
15:10 21.8 °C 14.5 °C 1020.9 hPa WNW 1.9 km/h 1.9 km/h 63 % 0 mm
15:11 21.8 °C 14.4 °C 1020.9 hPa WSW 3.7 km/h 3.7 km/h 63 % 0 mm
15:15 21.7 °C 14.4 °C 1020.9 hPa NW 1.9 km/h 1.9 km/h 63 % 0 mm
15:21 21.7 °C 14.3 °C 1020.9 hPa West 3.7 km/h 3.7 km/h 63 % 0 mm
15:26 21.6 °C 14.3 °C 1020.9 hPa NW 1.9 km/h 1.9 km/h 63 % 0 mm
15:31 21.4 °C 14.3 °C 1020.9 hPa NW 1.9 km/h 1.9 km/h 64 % 0 mm
15:33 21.4 °C 14.3 °C 1020.9 hPa NW 1.9 km/h 1.9 km/h 64 % 0 mm
15:36 21.4 °C 14.3 °C 1021.2 hPa WNW 5.6 km/h 5.6 km/h 64 % 0 mm
15:41 21.4 °C 14.3 °C 1020.9 hPa WNW 1.9 km/h 1.9 km/h 64 % 0 mm
15:46 21.3 °C 14.5 °C 1021.2 hPa NW 1.9 km/h   65 % 0 mm
15:49 21.3 °C 14.5 °C 1021.2 hPa NW 1.6 km/h 1.6 km/h 65 % 0 mm
15:54 21.3 °C 14.5 °C 1021.2 hPa NW 3.7 km/h 3.7 km/h 65 % 0 mm
15:56 21.4 °C 14.3 °C 1020.9 hPa NW 5.6 km/h 5.6 km/h 64 % 0 mm
16:01 21.3 °C 14.4 °C 1021.2 hPa Calm     65 % 0 mm
16:06 21.1 °C 14.3 °C 1021.2 hPa WNW 1.9 km/h 1.9 km/h 65 % 0 mm
16:08 21.1 °C 14.4 °C 1021.2 hPa Calm     66 % 0 mm
16:13 20.9 °C 14.3 °C 1021.2 hPa NW 1.9 km/h 1.9 km/h 66 % 0 mm
16:14 20.9 °C 14.3 °C 1021.2 hPa NW 1.9 km/h   66 % 0 mm
16:19 20.7 °C 14.1 °C 1021.2 hPa Calm     66 % 0 mm
16:20 20.6 °C 14.3 °C 1021.2 hPa Calm     67 % 0 mm
16:25 20.4 °C 14.1 °C 1021.2 hPa Calm     67 % 0 mm
16:26 20.4 °C 14.1 °C 1021.2 hPa Calm     67 % 0 mm
16:31 20.1 °C 14 °C 1021.2 hPa Calm     68 % 0 mm
16:36 19.9 °C 14.1 °C 1021.2 hPa Calm     69 % 0 mm
16:41 19.8 °C 13.9 °C 1021.2 hPa Calm     69 % 0 mm
16:43 19.7 °C 13.9 °C 1021.2 hPa Calm     69 % 0 mm
16:48 19.6 °C 13.9 °C 1021.2 hPa Calm     70 % 0 mm
16:51 19.5 °C 13.9 °C 1021.2 hPa Calm     70 % 0 mm
16:59 19.2 °C 13.8 °C 1021.2 hPa Calm     71 % 0 mm
17:04 19 °C 13.8 °C 1021.2 hPa Calm     72 % 0 mm
17:08 18.9 °C 13.7 °C 1021.2 hPa Calm     72 % 0 mm
17:13 18.7 °C 13.8 °C 1021.6 hPa Calm     73 % 0 mm
17:18 18.6 °C 13.6 °C 1021.2 hPa Calm     73 % 0 mm
17:23 18.4 °C 13.7 °C 1021.2 hPa Calm     74 % 0 mm
17:26 18.3 °C 13.8 °C 1021.2 hPa Calm     75 % 0 mm
17:32 18.1 °C 13.6 °C 1021.2 hPa Calm     75 % 0 mm
17:38 18 °C 13.5 °C 1021.2 hPa Calm     75 % 0 mm
17:43 17.9 °C 13.8 °C 1021.2 hPa Calm     77 % 0 mm
17:45 17.8 °C 13.9 °C 1021.6 hPa Calm     78 % 0 mm
17:50 17.7 °C 13.8 °C 1021.6 hPa Calm     78 % 0 mm
17:55 17.5 °C 13.6 °C 1021.2 hPa Calm     78 % 0 mm
18:00 17.4 °C 13.7 °C 1021.6 hPa Calm     79 % 0 mm
18:05 17.3 °C 13.8 °C 1021.6 hPa Calm     80 % 0 mm
18:10 17.1 °C 13.4 °C 1021.9 hPa Calm     79 % 0 mm
18:15 17 °C 13.5 °C 1021.6 hPa Calm     80 % 0 mm
18:20 17 °C 13.5 °C 1021.6 hPa Calm     80 % 0 mm
18:25 16.9 °C 13.4 °C 1021.6 hPa Calm     80 % 0 mm
18:30 16.8 °C 13.6 °C 1021.6 hPa Calm     81 % 0 mm
18:35 16.7 °C 13.4 °C 1021.6 hPa Calm     81 % 0 mm
18:40 16.6 °C 13.4 °C 1021.6 hPa Calm     82 % 0 mm
18:44 16.7 °C 13.4 °C 1021.6 hPa Calm     81 % 0 mm
18:49 16.9 °C 13.4 °C 1021.6 hPa Calm     80 % 0 mm
18:54 17.1 °C 13.4 °C 1021.6 hPa Calm     79 % 0 mm
18:59 16.9 °C 13.3 °C 1021.2 hPa Calm     79 % 0 mm
19:04 16.7 °C 13.3 °C 1021.2 hPa Calm     80 % 0 mm
19:09 16.7 °C 13.2 °C 1021.2 hPa Calm     80 % 0 mm
19:14 16.6 °C 13.1 °C 1020.9 hPa Calm     80 % 0 mm
19:19 16.4 °C 13.2 °C 1020.5 hPa Calm     81 % 0 mm
19:25 16.4 °C 13.2 °C 1020.5 hPa Calm     81 % 0 mm
19:30 16.5 °C 13.2 °C 1020.5 hPa Calm     81 % 0 mm
19:32 16.6 °C 13.3 °C 1020.5 hPa Calm     81 % 0 mm
19:37 17.1 °C 13.4 °C 1020.5 hPa Calm   0.2 km/h 79 % 0 mm
19:42 17.4 °C 13.5 °C 1020.5 hPa Calm   0.2 km/h 78 % 0 mm
19:47 17.5 °C 13.4 °C 1020.5 hPa Calm     77 % 0 mm
19:52 17.4 °C 13.3 °C 1020.5 hPa Calm     77 % 0 mm
19:56 17.1 °C 13.2 °C 1020.5 hPa Calm     78 % 0 mm
20:01 16.7 °C 13.3 °C 1020.5 hPa WNW 1.9 km/h   80 % 0 mm
20:03 16.6 °C 13.2 °C 1020.5 hPa WNW 1.9 km/h   80 % 0 mm
20:09 16.4 °C 13.1 °C 1020.5 hPa Calm     81 % 0 mm
20:12 16.3 °C 13 °C 1020.5 hPa Calm     81 % 0 mm
20:17 16.1 °C 13 °C 1020.5 hPa Calm     82 % 0 mm
20:22 15.9 °C 13 °C 1020.5 hPa Calm     83 % 0 mm
20:27 15.7 °C 12.9 °C 1020.5 hPa Calm     84 % 0 mm
20:32 15.6 °C 12.9 °C 1020.5 hPa Calm     84 % 0 mm
20:38 15.4 °C 12.7 °C 1020.9 hPa Calm     84 % 0 mm
20:43 15.3 °C 12.8 °C 1020.9 hPa Calm     85 % 0 mm
20:48 15.3 °C 12.8 °C 1020.9 hPa Calm     85 % 0 mm
20:51 15.3 °C 12.8 °C 1020.9 hPa Calm     85 % 0 mm
20:56 15.4 °C 12.9 °C 1020.9 hPa Calm     85 % 0 mm
21:01 15.4 °C 12.9 °C 1021.2 hPa Calm     85 % 0 mm
21:03 15.4 °C 12.9 °C 1021.2 hPa Calm     85 % 0 mm
21:04 15.4 °C 12.9 °C 1021.2 hPa Calm     85 % 0 mm
21:09 15.3 °C 12.7 °C 1021.2 hPa Calm     84 % 0 mm
21:14 15.3 °C 12.8 °C 1021.2 hPa Calm     85 % 0 mm
21:15 15.3 °C 12.8 °C 1021.2 hPa Calm     85 % 0 mm
21:20 15.4 °C 12.9 °C 1021.6 hPa Calm     85 % 0 mm
21:25 15.4 °C 12.8 °C 1021.6 hPa Calm     84 % 0 mm
21:28 15.4 °C 12.7 °C 1021.9 hPa Calm     84 % 0 mm
21:33 15.1 °C 12.6 °C 1021.9 hPa Calm     85 % 0 mm
21:38 15 °C 12.7 °C 1022.2 hPa Calm     86 % 0 mm
21:41 14.9 °C 12.6 °C 1022.2 hPa SE 1.9 km/h   86 % 0 mm
21:46 14.8 °C 12.7 °C 1022.2 hPa Calm     87 % 0 mm
21:51 14.7 °C 12.6 °C 1022.2 hPa Calm     87 % 0 mm
21:56 14.6 °C 12.4 °C 1022.6 hPa Calm     87 % 0 mm
22:01 14.5 °C 12.6 °C 1022.6 hPa SE 1.9 km/h 1.9 km/h 88 % 0 mm
22:04 14.5 °C 12.6 °C 1022.6 hPa SE 1.9 km/h 1.9 km/h 88 % 0 mm
22:09 14.6 °C 12.6 °C 1022.6 hPa Calm     88 % 0 mm
22:12 14.6 °C 12.6 °C 1022.6 hPa Calm     88 % 0 mm
22:18 14.5 °C 12.6 °C 1022.6 hPa Calm     88 % 0 mm
22:22 14.4 °C 12.5 °C 1022.6 hPa Calm     88 % 0 mm
22:28 14.4 °C 12.7 °C 1022.6 hPa Calm     89 % 0 mm
22:31 14.4 °C 12.6 °C 1022.6 hPa Calm     89 % 0 mm
22:36 14.4 °C 12.6 °C 1022.6 hPa Calm     89 % 0 mm
22:38 14.4 °C 12.6 °C 1022.6 hPa Calm     89 % 0 mm
22:41 14.3 °C 12.6 °C 1022.6 hPa Calm     89 % 0 mm
22:46 14.3 °C 12.5 °C 1022.6 hPa Calm     89 % 0 mm
22:48 14.3 °C 12.5 °C 1022.6 hPa Calm     89 % 0 mm
22:53 14.3 °C 12.6 °C 1022.6 hPa Calm     89 % 0 mm
22:58 14.3 °C 12.6 °C 1022.6 hPa Calm     89 % 0 mm
23:03 14.3 °C 12.6 °C 1022.6 hPa Calm     89 % 0 mm
23:05 14.3 °C 12.5 °C 1022.6 hPa Calm     89 % 0 mm
23:10 14.2 °C 12.4 °C 1022.6 hPa Calm     89 % 0 mm
23:15 14.2 °C 12.4 °C 1022.6 hPa Calm     89 % 0 mm
23:20 14.2 °C 12.4 °C 1022.6 hPa Calm     89 % 0 mm
23:25 14.2 °C 12.4 °C 1022.6 hPa Calm     89 % 0 mm
23:26 14.2 °C 12.4 °C 1022.6 hPa Calm     89 % 0 mm
23:32 14.2 °C 12.4 °C 1022.2 hPa Calm     89 % 0 mm
23:37 14.3 °C 12.5 °C 1022.2 hPa Calm     89 % 0 mm
23:42 14.3 °C 12.5 °C 1022.2 hPa Calm     89 % 0 mm
23:47 14.3 °C 12.6 °C 1022.2 hPa Calm     89 % 0 mm
23:49 14.4 °C 12.4 °C 1022.2 hPa Calm     88 % 0 mm
23:54 14.6 °C 12.7 °C 1022.2 hPa Calm     88 % 0 mm
23:59 14.7 °C 12.6 °C 1021.9 hPa Calm     87 % 0 mm
Park Place, Exeter, Tulare County, California, USA
Compliments of Weather Underground - 3 mb